createdAt,value
2022-11-27T00:02:23.784Z,100781.91
2022-11-27T00:07:30.467Z,100791.06
2022-11-27T00:12:36.535Z,100834.72
2022-11-27T00:17:41.447Z,100803.97
2022-11-27T00:22:48.379Z,100797.41
2022-11-27T00:27:55.021Z,100822.81
2022-11-27T00:33:00.168Z,100783.31
2022-11-27T00:38:10.946Z,100812.03
2022-11-27T00:43:17.397Z,100826.88
2022-11-27T00:48:22.757Z,100781.16
2022-11-27T00:53:27.666Z,100795.16
2022-11-27T00:58:32.966Z,100796.91
2022-11-27T01:03:39.157Z,100776.78
2022-11-27T01:08:44.830Z,100774.00
2022-11-27T01:13:50.706Z,100786.13
2022-11-27T01:19:00.036Z,100804.84
2022-11-27T01:24:06.473Z,100796.75
2022-11-27T01:29:11.901Z,100789.38
2022-11-27T01:34:20.097Z,100804.84
2022-11-27T01:39:26.432Z,100800.16
2022-11-27T01:44:33.160Z,100799.03
2022-11-27T01:49:50.927Z,100787.72
2022-11-27T01:55:11.438Z,100790.59
2022-11-27T02:00:18.775Z,100797.66
2022-11-27T02:05:27.660Z,100813.38
2022-11-27T02:10:53.570Z,100795.56
2022-11-27T02:16:01.600Z,100795.25
2022-11-27T02:21:28.980Z,100790.53
2022-11-27T02:26:53.443Z,100787.66
2022-11-27T02:32:37.996Z,100771.84
2022-11-27T02:37:52.233Z,100761.09
2022-11-27T02:43:03.676Z,100768.44
2022-11-27T02:48:12.589Z,100748.56
2022-11-27T02:53:31.564Z,100758.06
2022-11-27T02:58:39.957Z,100739.66
2022-11-27T03:03:50.153Z,100730.78
2022-11-27T03:09:13.018Z,100731.91
2022-11-27T03:14:21.767Z,100691.72
2022-11-27T03:19:59.206Z,100666.28
2022-11-27T03:25:05.590Z,100695.25
2022-11-27T03:30:16.489Z,100636.81
2022-11-27T03:35:26.656Z,100620.66
2022-11-27T03:40:47.503Z,100607.97
2022-11-27T03:46:03.630Z,100593.09
2022-11-27T03:51:42.839Z,100591.84
2022-11-27T03:57:20.036Z,100597.19
2022-11-27T04:02:47.969Z,100572.03
2022-11-27T04:07:54.004Z,100556.81
2022-11-27T04:12:59.702Z,100578.97
2022-11-27T04:18:05.691Z,100617.81
2022-11-27T04:23:12.117Z,100610.78
2022-11-27T04:28:19.609Z,100630.75
2022-11-27T04:33:27.190Z,100617.78
2022-11-27T04:38:33.618Z,100613.84
2022-11-27T04:43:40.187Z,100600.41
2022-11-27T04:48:45.508Z,100591.97
2022-11-27T04:53:50.912Z,100557.34
2022-11-27T04:58:56.509Z,100553.16
2022-11-27T05:04:02.083Z,100548.16
2022-11-27T05:09:07.477Z,100563.13
2022-11-27T05:14:19.645Z,100529.66
2022-11-27T05:19:27.380Z,100511.75
2022-11-27T05:24:38.070Z,100500.16
2022-11-27T05:29:46.602Z,100507.41
2022-11-27T05:34:54.847Z,100479.09
2022-11-27T05:40:02.567Z,100481.66
2022-11-27T05:45:14.085Z,100473.72
2022-11-27T05:50:19.519Z,100443.38
2022-11-27T05:55:24.873Z,100464.69
2022-11-27T06:00:30.192Z,100477.16
2022-11-27T06:05:35.523Z,100477.28
2022-11-27T06:10:42.065Z,100483.22
2022-11-27T06:15:47.575Z,100486.69
2022-11-27T06:20:53.200Z,100499.69
2022-11-27T06:25:58.651Z,100514.59
2022-11-27T06:31:17.287Z,100499.25
2022-11-27T06:36:27.324Z,100498.69
2022-11-27T06:41:33.463Z,100498.22
2022-11-27T06:46:39.965Z,100498.16
2022-11-27T06:51:45.855Z,100509.44
2022-11-27T06:56:52.604Z,100511.47
2022-11-27T07:01:59.249Z,100492.66
2022-11-27T07:07:08.801Z,100485.41
2022-11-27T07:12:15.598Z,100503.47
2022-11-27T07:17:21.018Z,100518.22
2022-11-27T07:22:26.376Z,100553.00
2022-11-27T07:27:32.666Z,100544.97
2022-11-27T07:32:38.704Z,100574.53
2022-11-27T07:37:44.602Z,100554.84
2022-11-27T07:42:51.150Z,100545.00
2022-11-27T07:47:57.553Z,100569.44
2022-11-27T07:53:04.213Z,100543.59
2022-11-27T07:58:12.136Z,100553.84
2022-11-27T08:03:18.287Z,100535.25
2022-11-27T08:08:31.914Z,100518.25
2022-11-27T08:13:38.516Z,100489.31
2022-11-27T08:18:44.179Z,100486.38
2022-11-27T08:23:50.584Z,100459.00
2022-11-27T08:28:58.955Z,100465.19
2022-11-27T08:34:05.746Z,100511.03
2022-11-27T08:39:12.428Z,100509.47
2022-11-27T08:44:18.538Z,100519.34
2022-11-27T08:49:24.972Z,100547.69
2022-11-27T08:54:32.295Z,100525.53
2022-11-27T08:59:38.828Z,100541.84
2022-11-27T09:04:44.347Z,100530.91
2022-11-27T09:09:50.160Z,100561.00
2022-11-27T09:14:55.620Z,100536.97
2022-11-27T09:20:00.916Z,100544.81
2022-11-27T09:25:06.589Z,100567.78
2022-11-27T09:30:12.661Z,100620.66
2022-11-27T09:35:18.329Z,100589.25
2022-11-27T09:40:23.728Z,100605.22
2022-11-27T09:45:29.859Z,100593.41
2022-11-27T09:50:39.023Z,100588.41
2022-11-27T09:55:45.386Z,100592.94
2022-11-27T10:00:50.787Z,100609.66
2022-11-27T10:06:29.370Z,100578.78
2022-11-27T10:11:57.521Z,100585.22
2022-11-27T10:17:47.008Z,100603.75
2022-11-27T10:23:34.544Z,100624.78
2022-11-27T10:28:48.924Z,100632.03
2022-11-27T10:34:02.804Z,100642.75
2022-11-27T10:39:15.954Z,100649.84
2022-11-27T10:44:39.701Z,100642.97
2022-11-27T10:49:46.252Z,100693.09
2022-11-27T10:55:00.658Z,100724.47
2022-11-27T11:00:22.016Z,100721.88
2022-11-27T11:05:41.393Z,100694.31
2022-11-27T11:11:01.429Z,100704.03
2022-11-27T11:16:17.469Z,100697.00
2022-11-27T11:21:32.264Z,100712.91
2022-11-27T11:26:46.565Z,100702.66
2022-11-27T11:31:52.315Z,100739.28
2022-11-27T11:37:04.174Z,100690.75
2022-11-27T11:42:24.485Z,100691.84
2022-11-27T11:47:31.493Z,100659.38
2022-11-27T11:53:01.039Z,100646.19
2022-11-27T11:58:33.753Z,100650.69
2022-11-27T12:03:59.225Z,100651.84
2022-11-27T12:09:32.759Z,100658.53
2022-11-27T12:14:41.335Z,100667.47
2022-11-27T12:20:02.149Z,100676.22
2022-11-27T12:25:41.428Z,100679.84
2022-11-27T12:30:56.633Z,100671.25
2022-11-27T12:36:27.600Z,100664.38
2022-11-27T12:41:56.663Z,100680.03
2022-11-27T12:47:27.802Z,100683.47
2022-11-27T12:53:02.760Z,100671.56
2022-11-27T12:58:39.506Z,100653.84
2022-11-27T13:04:08.285Z,100651.94
2022-11-27T13:09:23.345Z,100641.91
2022-11-27T13:14:32.327Z,100611.88
2022-11-27T13:19:37.770Z,100636.06
2022-11-27T13:24:46.497Z,100627.94
2022-11-27T13:29:59.920Z,100630.44
2022-11-27T13:35:31.297Z,100633.47
2022-11-27T13:40:46.552Z,100653.09
2022-11-27T13:45:53.346Z,100662.56
2022-11-27T13:51:00.362Z,100653.59
2022-11-27T13:56:12.917Z,100665.94
2022-11-27T14:01:27.002Z,100656.25
2022-11-27T14:06:35.049Z,100646.09
2022-11-27T14:11:44.656Z,100640.25
2022-11-27T14:17:10.648Z,100618.13
2022-11-27T14:23:14.425Z,100602.56
2022-11-27T14:28:16.732Z,100605.28
2022-11-27T14:33:29.725Z,100609.06
2022-11-27T14:38:37.075Z,100622.09
2022-11-27T14:43:44.931Z,100626.25
2022-11-27T14:49:01.650Z,100672.72
2022-11-27T14:54:44.245Z,100634.59
2022-11-27T14:59:50.875Z,100648.81
2022-11-27T15:05:08.491Z,100597.66
2022-11-27T15:10:39.905Z,100582.81
2022-11-27T15:15:58.357Z,100589.09
2022-11-27T15:21:11.257Z,100613.69
2022-11-27T15:26:30.579Z,100612.25
2022-11-27T15:31:38.726Z,100623.28
2022-11-27T15:36:55.655Z,100647.22
2022-11-27T15:42:03.662Z,100645.03
2022-11-27T15:47:24.041Z,100634.81
2022-11-27T15:52:29.736Z,100631.34
2022-11-27T15:57:35.219Z,100615.34
2022-11-27T16:02:40.902Z,100618.03
2022-11-27T16:07:47.536Z,100629.28
2022-11-27T16:12:56.566Z,100625.84
2022-11-27T16:18:05.411Z,100633.78
2022-11-27T16:23:19.644Z,100644.38
2022-11-27T16:28:24.966Z,100655.56
2022-11-27T16:33:35.011Z,100671.34
2022-11-27T16:38:40.848Z,100672.44
2022-11-27T16:43:51.636Z,100688.22
2022-11-27T16:49:00.440Z,100673.31
2022-11-27T16:54:08.422Z,100663.09
2022-11-27T16:59:16.815Z,100648.66
2022-11-27T17:04:23.575Z,100640.19
2022-11-27T17:09:30.920Z,100641.59
2022-11-27T17:14:38.415Z,100667.72
2022-11-27T17:19:45.835Z,100654.16
2022-11-27T17:24:53.238Z,100651.69
2022-11-27T17:29:59.599Z,100638.13
2022-11-27T17:35:05.853Z,100641.81
2022-11-27T17:40:11.875Z,100643.34
2022-11-27T17:45:17.450Z,100640.47
2022-11-27T17:50:22.822Z,100656.31
2022-11-27T17:55:28.729Z,100651.72
2022-11-27T18:00:37.234Z,100658.09
2022-11-27T18:05:42.910Z,100690.50
2022-11-27T18:10:50.633Z,100722.16
2022-11-27T18:15:56.522Z,100735.63
2022-11-27T18:21:08.478Z,100743.50
2022-11-27T18:26:17.268Z,100765.72
2022-11-27T18:31:22.905Z,100764.50
2022-11-27T18:36:28.398Z,100757.00
2022-11-27T18:41:33.667Z,100742.59
2022-11-27T18:46:39.942Z,100745.97
2022-11-27T18:51:46.378Z,100755.88
2022-11-27T18:56:51.811Z,100735.81
2022-11-27T19:01:57.273Z,100706.75
2022-11-27T19:07:02.815Z,100686.19
2022-11-27T19:12:08.745Z,100711.88
2022-11-27T19:17:13.967Z,100671.38
2022-11-27T19:22:21.148Z,100651.13
2022-11-27T19:27:26.507Z,100641.50
2022-11-27T19:32:31.803Z,100628.78
2022-11-27T19:37:38.284Z,100657.69
2022-11-27T19:42:43.836Z,100682.22
2022-11-27T19:47:49.314Z,100651.66
2022-11-27T19:52:56.688Z,100658.63
2022-11-27T19:58:02.428Z,100642.72
2022-11-27T20:03:08.198Z,100636.25
2022-11-27T20:08:13.692Z,100638.88
2022-11-27T20:13:19.233Z,100605.38
2022-11-27T20:18:24.705Z,100618.13
2022-11-27T20:23:31.540Z,100648.28
2022-11-27T20:28:38.273Z,100675.97
2022-11-27T20:33:43.964Z,100672.41
2022-11-27T20:38:49.663Z,100654.44
2022-11-27T20:44:01.178Z,100626.59
2022-11-27T20:49:07.320Z,100609.88
2022-11-27T20:54:14.056Z,100627.16
2022-11-27T20:59:20.404Z,100615.44
2022-11-27T21:04:28.440Z,100619.22
2022-11-27T21:09:33.936Z,100658.47
2022-11-27T21:14:40.865Z,100666.00
2022-11-27T21:19:46.717Z,100673.69
2022-11-27T21:24:53.107Z,100674.63
2022-11-27T21:29:58.786Z,100663.38
2022-11-27T21:35:05.211Z,100642.72
2022-11-27T21:40:11.395Z,100651.69
2022-11-27T21:45:16.667Z,100652.16
2022-11-27T21:50:22.161Z,100640.16
2022-11-27T21:55:30.858Z,100646.69
2022-11-27T22:00:36.891Z,100633.94
2022-11-27T22:05:42.192Z,100636.63
2022-11-27T22:10:47.675Z,100637.47
2022-11-27T22:15:53.460Z,100644.72
2022-11-27T22:20:59.963Z,100618.28
2022-11-27T22:26:07.257Z,100631.03
2022-11-27T22:31:16.094Z,100658.47
2022-11-27T22:36:35.581Z,100697.91
2022-11-27T22:41:42.074Z,100719.19
2022-11-27T22:46:47.802Z,100706.16
2022-11-27T22:51:54.218Z,100703.75
2022-11-27T22:56:59.880Z,100701.91
2022-11-27T23:02:07.497Z,100734.03
2022-11-27T23:07:13.130Z,100700.84
2022-11-27T23:12:18.503Z,100722.78
2022-11-27T23:17:23.841Z,100735.34
2022-11-27T23:22:29.364Z,100738.22
2022-11-27T23:27:34.679Z,100769.13
2022-11-27T23:32:41.524Z,100753.81
2022-11-27T23:37:47.127Z,100763.06
2022-11-27T23:42:52.676Z,100797.50
2022-11-27T23:47:58.045Z,100804.38
2022-11-27T23:53:03.589Z,100819.00
2022-11-27T23:58:08.874Z,100829.22
